ETEB/QOB METAR and TAF weather

Enter ICAO airport designator
Station Type Date Time Source
ETEB METAR 2021/08/02 01:56 UTC NOAA

ETEB 020156Z AUTO 26006KT 9999 BKN011 13/12 A2994 RMK AO2 SLP143 T01280117 $


Station Type Date Time Source
ETEB Decoded METAR 2021/08/02 01:56 UTC NOAA

Ansbach / Katterbach, Germany (ETEB) 49-19N 010-38E 476M
Aug 01, 2021 - 09:56 PM EDT / 2021.08.02 0156 UTC
Wind: from the W (260 degrees) at 7 MPH (6 KT):0
Visibility: greater than 7 mile(s):0
Sky conditions: mostly cloudy
Temperature: 55.0 F (12.8 C)
Dew Point: 53.1 F (11.7 C)
Relative Humidity: 93%
Pressure (altimeter): 29.94 in. Hg (1013 hPa)
ob: ETEB 020156Z AUTO 26006KT 9999 BKN011 13/12 A2994 RMK AO2 SLP143 T01280117
cycle: 2

Station Type Date Time Source
ETEB TAF 2021/07/30 17:48 UTC NOAA

TAF ETEB 301700Z 3017/3123 24009KT 9999 BKN040 510606 QNH2980INS
BECMG 3018/3019 24010G15KT 9000 -SHRA BKN030 510606 QNH2981INS
BECMG 3020/3021 24006KT 9999 NSW SCT035 510606 QNH2983INS
BECMG 3107/3108 26012G18KT 9999 FEW040 QNH2985INS
BECMG 3117/3118 24006KT 9999 BKN180 QNH2981INS TX23/3114Z TN15/3104Z LAST NO
AMDS AFT 3020 NEXT 0209

Example: see airport list